sensor_id;sensor_type;location;lat;lon;timestamp;pressure;altitude;pressure_sealevel;temperature;humidity
47706;BME280;33471;52.104;1.318;2023-01-29T00:01:02;102680.13;;;8.85;43.68
47706;BME280;33471;52.104;1.318;2023-01-29T00:03:29;102679.10;;;8.82;42.99
47706;BME280;33471;52.104;1.318;2023-01-29T00:05:56;102677.56;;;9.58;42.38
47706;BME280;33471;52.104;1.318;2023-01-29T00:08:24;102673.32;;;9.16;42.47
47706;BME280;33471;52.104;1.318;2023-01-29T00:10:52;102670.75;;;8.08;44.25
47706;BME280;33471;52.104;1.318;2023-01-29T00:13:19;102670.82;;;7.99;45.23
47706;BME280;33471;52.104;1.318;2023-01-29T00:15:53;102673.89;;;7.73;45.62
47706;BME280;33471;52.104;1.318;2023-01-29T00:18:21;102670.98;;;8.83;44.19
47706;BME280;33471;52.104;1.318;2023-01-29T00:20:48;102668.78;;;8.27;43.55
47706;BME280;33471;52.104;1.318;2023-01-29T00:23:15;102670.99;;;8.74;43.10
47706;BME280;33471;52.104;1.318;2023-01-29T00:25:42;102674.25;;;8.88;42.75
47706;BME280;33471;52.104;1.318;2023-01-29T00:28:10;102672.87;;;9.10;42.34
47706;BME280;33471;52.104;1.318;2023-01-29T00:30:37;102663.40;;;9.27;42.15
47706;BME280;33471;52.104;1.318;2023-01-29T00:33:05;102666.88;;;9.52;41.45
47706;BME280;33471;52.104;1.318;2023-01-29T00:35:32;102662.67;;;8.88;42.25
47706;BME280;33471;52.104;1.318;2023-01-29T00:38:00;102659.12;;;9.03;42.22
47706;BME280;33471;52.104;1.318;2023-01-29T00:40:27;102660.20;;;8.99;42.45
47706;BME280;33471;52.104;1.318;2023-01-29T00:42:54;102658.99;;;9.26;42.04
47706;BME280;33471;52.104;1.318;2023-01-29T00:45:21;102668.28;;;9.63;41.54
47706;BME280;33471;52.104;1.318;2023-01-29T00:47:49;102670.28;;;9.62;41.10
47706;BME280;33471;52.104;1.318;2023-01-29T00:50:16;102671.24;;;9.77;40.61
47706;BME280;33471;52.104;1.318;2023-01-29T00:52:44;102671.42;;;9.86;41.42
47706;BME280;33471;52.104;1.318;2023-01-29T00:55:11;102675.42;;;10.23;40.48
47706;BME280;33471;52.104;1.318;2023-01-29T00:57:38;102674.09;;;10.12;40.46
47706;BME280;33471;52.104;1.318;2023-01-29T01:00:09;102667.00;;;10.04;41.04
47706;BME280;33471;52.104;1.318;2023-01-29T01:02:37;102665.99;;;10.28;40.73
47706;BME280;33471;52.104;1.318;2023-01-29T01:05:06;102663.18;;;9.59;41.50
47706;BME280;33471;52.104;1.318;2023-01-29T01:07:34;102657.80;;;9.66;41.30
47706;BME280;33471;52.104;1.318;2023-01-29T01:10:01;102657.09;;;10.29;40.91
47706;BME280;33471;52.104;1.318;2023-01-29T01:12:29;102651.59;;;10.09;41.32
47706;BME280;33471;52.104;1.318;2023-01-29T01:14:56;102641.62;;;10.52;41.39
47706;BME280;33471;52.104;1.318;2023-01-29T01:17:24;102632.30;;;9.70;41.79
47706;BME280;33471;52.104;1.318;2023-01-29T01:19:51;102628.31;;;10.03;42.00
47706;BME280;33471;52.104;1.318;2023-01-29T01:22:18;102622.15;;;9.60;42.86
47706;BME280;33471;52.104;1.318;2023-01-29T01:24:45;102618.10;;;9.63;43.08
47706;BME280;33471;52.104;1.318;2023-01-29T01:27:13;102613.08;;;9.37;43.17
47706;BME280;33471;52.104;1.318;2023-01-29T01:29:41;102604.47;;;9.68;42.96
47706;BME280;33471;52.104;1.318;2023-01-29T01:32:08;102598.36;;;9.63;42.25
47706;BME280;33471;52.104;1.318;2023-01-29T01:34:35;102600.47;;;10.04;42.22
47706;BME280;33471;52.104;1.318;2023-01-29T01:37:03;102600.13;;;9.65;42.49
47706;BME280;33471;52.104;1.318;2023-01-29T01:39:30;102596.57;;;9.96;42.60
47706;BME280;33471;52.104;1.318;2023-01-29T01:41:58;102600.57;;;9.66;42.96
47706;BME280;33471;52.104;1.318;2023-01-29T01:44:59;102607.68;;;10.09;43.03
47706;BME280;33471;52.104;1.318;2023-01-29T01:47:31;102612.34;;;9.54;43.00
47706;BME280;33471;52.104;1.318;2023-01-29T01:50:02;102608.86;;;8.23;43.50
47706;BME280;33471;52.104;1.318;2023-01-29T01:52:31;102611.44;;;9.54;42.17
47706;BME280;33471;52.104;1.318;2023-01-29T01:54:59;102608.04;;;9.08;42.20
47706;BME280;33471;52.104;1.318;2023-01-29T01:57:30;102606.45;;;10.12;41.64
47706;BME280;33471;52.104;1.318;2023-01-29T02:00:05;102606.81;;;9.88;41.57
47706;BME280;33471;52.104;1.318;2023-01-29T02:02:34;102610.95;;;9.60;42.20
47706;BME280;33471;52.104;1.318;2023-01-29T02:05:02;102616.08;;;9.69;41.77
47706;BME280;33471;52.104;1.318;2023-01-29T02:07:30;102613.96;;;9.98;41.57
47706;BME280;33471;52.104;1.318;2023-01-29T02:10:02;102612.63;;;10.61;41.52
47706;BME280;33471;52.104;1.318;2023-01-29T02:12:32;102612.58;;;10.17;41.98
47706;BME280;33471;52.104;1.318;2023-01-29T02:15:00;102611.51;;;10.22;41.85
47706;BME280;33471;52.104;1.318;2023-01-29T02:17:27;102610.67;;;10.18;42.29
47706;BME280;33471;52.104;1.318;2023-01-29T02:20:00;102617.20;;;10.18;42.29
47706;BME280;33471;52.104;1.318;2023-01-29T02:22:45;102620.60;;;10.11;42.60
47706;BME280;33471;52.104;1.318;2023-01-29T02:25:32;102622.33;;;9.61;42.50
47706;BME280;33471;52.104;1.318;2023-01-29T02:28:15;102621.87;;;9.71;42.49
47706;BME280;33471;52.104;1.318;2023-01-29T02:30:52;102624.54;;;10.10;42.07
47706;BME280;33471;52.104;1.318;2023-01-29T02:33:30;102619.91;;;9.78;42.13
47706;BME280;33471;52.104;1.318;2023-01-29T02:36:10;102614.48;;;9.94;41.38
47706;BME280;33471;52.104;1.318;2023-01-29T02:38:44;102611.77;;;10.73;40.85
47706;BME280;33471;52.104;1.318;2023-01-29T02:41:18;102614.36;;;10.52;41.32
47706;BME280;33471;52.104;1.318;2023-01-29T02:43:52;102615.07;;;10.55;41.65
47706;BME280;33471;52.104;1.318;2023-01-29T02:46:29;102616.70;;;9.85;42.15
47706;BME280;33471;52.104;1.318;2023-01-29T02:49:03;102612.99;;;10.04;41.91
47706;BME280;33471;52.104;1.318;2023-01-29T02:51:38;102612.98;;;10.17;42.20
47706;BME280;33471;52.104;1.318;2023-01-29T02:54:17;102612.47;;;10.10;42.20
47706;BME280;33471;52.104;1.318;2023-01-29T02:56:50;102611.73;;;9.68;42.29
47706;BME280;33471;52.104;1.318;2023-01-29T02:59:22;102606.97;;;10.17;41.92
47706;BME280;33471;52.104;1.318;2023-01-29T03:01:54;102601.46;;;10.09;41.84
47706;BME280;33471;52.104;1.318;2023-01-29T03:04:29;102602.99;;;9.34;42.12
47706;BME280;33471;52.104;1.318;2023-01-29T03:07:01;102604.85;;;10.01;41.90
47706;BME280;33471;52.104;1.318;2023-01-29T03:09:31;102605.52;;;10.25;41.85
47706;BME280;33471;52.104;1.318;2023-01-29T03:12:06;102600.55;;;10.09;41.87
47706;BME280;33471;52.104;1.318;2023-01-29T03:14:39;102594.92;;;9.90;42.14
47706;BME280;33471;52.104;1.318;2023-01-29T03:17:07;102596.02;;;9.84;42.89
47706;BME280;33471;52.104;1.318;2023-01-29T03:19:40;102593.56;;;10.34;42.27
47706;BME280;33471;52.104;1.318;2023-01-29T03:22:09;102595.26;;;9.82;42.71
47706;BME280;33471;52.104;1.318;2023-01-29T03:24:40;102591.35;;;9.85;42.96
47706;BME280;33471;52.104;1.318;2023-01-29T03:27:11;102592.36;;;9.89;42.82
47706;BME280;33471;52.104;1.318;2023-01-29T03:29:41;102590.58;;;9.91;42.95
47706;BME280;33471;52.104;1.318;2023-01-29T03:32:11;102592.82;;;9.85;42.67
47706;BME280;33471;52.104;1.318;2023-01-29T03:34:41;102592.77;;;9.64;42.66
47706;BME280;33471;52.104;1.318;2023-01-29T03:37:16;102591.17;;;9.25;43.11
47706;BME280;33471;52.104;1.318;2023-01-29T03:39:45;102586.76;;;10.02;42.70
47706;BME280;33471;52.104;1.318;2023-01-29T03:42:19;102582.63;;;9.83;43.14
47706;BME280;33471;52.104;1.318;2023-01-29T03:44:57;102578.64;;;9.46;43.80
47706;BME280;33471;52.104;1.318;2023-01-29T03:47:35;102573.74;;;9.41;43.51
47706;BME280;33471;52.104;1.318;2023-01-29T03:50:11;102565.44;;;9.60;43.25
47706;BME280;33471;52.104;1.318;2023-01-29T03:52:43;102563.59;;;9.05;43.83
47706;BME280;33471;52.104;1.318;2023-01-29T03:55:16;102561.10;;;9.71;43.22
47706;BME280;33471;52.104;1.318;2023-01-29T03:57:51;102559.14;;;9.64;43.52
47706;BME280;33471;52.104;1.318;2023-01-29T04:00:22;102553.66;;;8.55;44.25
47706;BME280;33471;52.104;1.318;2023-01-29T04:03:00;102556.00;;;9.38;43.72
47706;BME280;33471;52.104;1.318;2023-01-29T04:05:35;102552.25;;;9.40;43.80
47706;BME280;33471;52.104;1.318;2023-01-29T04:08:08;102550.50;;;9.19;44.09
47706;BME280;33471;52.104;1.318;2023-01-29T04:10:38;102547.59;;;9.11;44.59
47706;BME280;33471;52.104;1.318;2023-01-29T04:13:10;102548.25;;;9.13;44.70
47706;BME280;33471;52.104;1.318;2023-01-29T04:15:44;102544.80;;;8.69;44.94
47706;BME280;33471;52.104;1.318;2023-01-29T04:18:12;102541.55;;;8.97;44.54
47706;BME280;33471;52.104;1.318;2023-01-29T04:20:40;102542.58;;;9.21;44.32
47706;BME280;33471;52.104;1.318;2023-01-29T04:23:19;102540.87;;;9.11;44.68
47706;BME280;33471;52.104;1.318;2023-01-29T04:25:55;102538.77;;;9.19;44.73
47706;BME280;33471;52.104;1.318;2023-01-29T04:28:32;102530.99;;;7.91;46.38
47706;BME280;33471;52.104;1.318;2023-01-29T04:31:07;102526.49;;;8.32;45.59
47706;BME280;33471;52.104;1.318;2023-01-29T04:33:42;102529.99;;;8.95;45.60
47706;BME280;33471;52.104;1.318;2023-01-29T04:36:24;102526.28;;;8.23;45.57
47706;BME280;33471;52.104;1.318;2023-01-29T04:39:01;102520.71;;;8.92;45.26
47706;BME280;33471;52.104;1.318;2023-01-29T04:41:36;102513.39;;;8.08;46.58
47706;BME280;33471;52.104;1.318;2023-01-29T04:44:14;102514.76;;;8.66;45.70
47706;BME280;33471;52.104;1.318;2023-01-29T04:46:47;102507.19;;;8.77;45.54
47706;BME280;33471;52.104;1.318;2023-01-29T04:49:24;102502.49;;;9.13;45.17
47706;BME280;33471;52.104;1.318;2023-01-29T04:52:00;102502.73;;;9.09;45.80
47706;BME280;33471;52.104;1.318;2023-01-29T04:54:44;102500.50;;;9.05;45.20
47706;BME280;33471;52.104;1.318;2023-01-29T04:57:19;102500.93;;;8.92;45.82
47706;BME280;33471;52.104;1.318;2023-01-29T04:59:54;102497.88;;;8.98;45.76
47706;BME280;33471;52.104;1.318;2023-01-29T05:02:23;102490.97;;;8.68;45.95
47706;BME280;33471;52.104;1.318;2023-01-29T05:04:53;102481.58;;;8.84;46.70
47706;BME280;33471;52.104;1.318;2023-01-29T05:07:23;102480.37;;;8.45;47.63
47706;BME280;33471;52.104;1.318;2023-01-29T05:09:52;102476.40;;;8.38;47.77
47706;BME280;33471;52.104;1.318;2023-01-29T05:12:22;102472.42;;;8.13;47.10
47706;BME280;33471;52.104;1.318;2023-01-29T05:14:52;102466.35;;;7.61;47.20
47706;BME280;33471;52.104;1.318;2023-01-29T05:17:22;102461.87;;;8.44;46.38
47706;BME280;33471;52.104;1.318;2023-01-29T05:19:49;102456.41;;;8.23;47.43
47706;BME280;33471;52.104;1.318;2023-01-29T05:22:17;102455.13;;;8.34;47.85
47706;BME280;33471;52.104;1.318;2023-01-29T05:24:44;102454.68;;;8.53;47.33
47706;BME280;33471;52.104;1.318;2023-01-29T05:27:16;102449.74;;;7.98;48.80
47706;BME280;33471;52.104;1.318;2023-01-29T05:29:45;102448.72;;;6.90;48.85
47706;BME280;33471;52.104;1.318;2023-01-29T05:32:14;102451.85;;;7.83;48.14
47706;BME280;33471;52.104;1.318;2023-01-29T05:34:41;102448.52;;;7.95;48.16
47706;BME280;33471;52.104;1.318;2023-01-29T05:37:09;102450.11;;;8.41;47.24
47706;BME280;33471;52.104;1.318;2023-01-29T05:39:36;102451.99;;;7.98;48.03
47706;BME280;33471;52.104;1.318;2023-01-29T05:42:04;102453.94;;;8.42;47.61
47706;BME280;33471;52.104;1.318;2023-01-29T05:44:31;102454.71;;;8.57;47.51
47706;BME280;33471;52.104;1.318;2023-01-29T05:46:58;102451.91;;;7.46;47.80
47706;BME280;33471;52.104;1.318;2023-01-29T05:49:26;102451.77;;;8.47;46.88
47706;BME280;33471;52.104;1.318;2023-01-29T05:51:54;102448.22;;;8.45;46.87
47706;BME280;33471;52.104;1.318;2023-01-29T05:54:21;102448.89;;;8.48;46.78
47706;BME280;33471;52.104;1.318;2023-01-29T05:56:49;102448.70;;;7.74;47.64
47706;BME280;33471;52.104;1.318;2023-01-29T05:59:16;102446.25;;;7.24;48.64
47706;BME280;33471;52.104;1.318;2023-01-29T06:01:44;102452.16;;;7.22;49.95
47706;BME280;33471;52.104;1.318;2023-01-29T06:04:11;102453.06;;;7.77;48.36
47706;BME280;33471;52.104;1.318;2023-01-29T06:06:39;102452.92;;;7.72;48.98
47706;BME280;33471;52.104;1.318;2023-01-29T06:09:08;102450.49;;;7.37;49.82
47706;BME280;33471;52.104;1.318;2023-01-29T06:11:36;102450.27;;;6.36;52.04
47706;BME280;33471;52.104;1.318;2023-01-29T06:14:03;102445.38;;;7.79;48.62
47706;BME280;33471;52.104;1.318;2023-01-29T06:16:31;102439.26;;;6.75;50.74
47706;BME280;33471;52.104;1.318;2023-01-29T06:18:58;102442.81;;;6.38;52.09
47706;BME280;33471;52.104;1.318;2023-01-29T06:21:26;102438.38;;;7.89;49.36
47706;BME280;33471;52.104;1.318;2023-01-29T06:23:53;102439.59;;;6.53;50.51
47706;BME280;33471;52.104;1.318;2023-01-29T06:26:21;102437.13;;;7.67;49.68
47706;BME280;33471;52.104;1.318;2023-01-29T06:28:49;102435.00;;;7.18;49.70
47706;BME280;33471;52.104;1.318;2023-01-29T06:31:17;102429.14;;;7.92;48.87
47706;BME280;33471;52.104;1.318;2023-01-29T06:33:44;102427.48;;;7.99;48.38
47706;BME280;33471;52.104;1.318;2023-01-29T06:36:11;102422.18;;;7.54;48.81
47706;BME280;33471;52.104;1.318;2023-01-29T06:38:39;102422.02;;;8.34;47.54
47706;BME280;33471;52.104;1.318;2023-01-29T06:41:09;102420.84;;;8.49;47.48
47706;BME280;33471;52.104;1.318;2023-01-29T06:43:36;102424.28;;;8.05;48.48
47706;BME280;33471;52.104;1.318;2023-01-29T06:46:07;102424.73;;;8.53;46.89
47706;BME280;33471;52.104;1.318;2023-01-29T06:48:34;102422.01;;;7.78;47.86
47706;BME280;33471;52.104;1.318;2023-01-29T06:51:03;102423.66;;;8.25;47.85
47706;BME280;33471;52.104;1.318;2023-01-29T06:53:32;102421.97;;;8.72;47.12
47706;BME280;33471;52.104;1.318;2023-01-29T06:56:00;102418.82;;;9.15;46.49
47706;BME280;33471;52.104;1.318;2023-01-29T06:58:27;102424.86;;;7.80;49.37
47706;BME280;33471;52.104;1.318;2023-01-29T07:01:03;102420.99;;;7.34;49.89
47706;BME280;33471;52.104;1.318;2023-01-29T07:03:30;102421.76;;;8.19;47.92
47706;BME280;33471;52.104;1.318;2023-01-29T07:05:57;102416.87;;;8.33;47.96
47706;BME280;33471;52.104;1.318;2023-01-29T07:08:24;102416.06;;;7.51;50.25
47706;BME280;33471;52.104;1.318;2023-01-29T07:10:51;102419.62;;;7.30;51.33
47706;BME280;33471;52.104;1.318;2023-01-29T07:13:18;102421.36;;;8.01;49.84
47706;BME280;33471;52.104;1.318;2023-01-29T07:15:46;102422.86;;;6.47;51.51
47706;BME280;33471;52.104;1.318;2023-01-29T07:18:14;102420.84;;;7.09;50.77
47706;BME280;33471;52.104;1.318;2023-01-29T07:20:42;102421.47;;;6.80;52.45
47706;BME280;33471;52.104;1.318;2023-01-29T07:23:12;102417.80;;;7.15;52.10
47706;BME280;33471;52.104;1.318;2023-01-29T07:25:40;102414.99;;;7.66;51.24
47706;BME280;33471;52.104;1.318;2023-01-29T07:28:08;102410.05;;;7.31;51.99
47706;BME280;33471;52.104;1.318;2023-01-29T07:30:36;102412.38;;;7.42;51.82
47706;BME280;33471;52.104;1.318;2023-01-29T07:33:04;102410.38;;;7.61;51.95
47706;BME280;33471;52.104;1.318;2023-01-29T07:35:37;102408.86;;;7.63;51.49
47706;BME280;33471;52.104;1.318;2023-01-29T07:38:05;102407.36;;;8.00;50.54
47706;BME280;33471;52.104;1.318;2023-01-29T07:40:34;102408.58;;;7.43;50.82
47706;BME280;33471;52.104;1.318;2023-01-29T07:43:03;102412.24;;;8.44;49.56
47706;BME280;33471;52.104;1.318;2023-01-29T07:45:32;102410.06;;;7.93;50.42
47706;BME280;33471;52.104;1.318;2023-01-29T07:47:59;102406.69;;;7.30;51.16
47706;BME280;33471;52.104;1.318;2023-01-29T07:50:27;102401.86;;;7.80;49.98
47706;BME280;33471;52.104;1.318;2023-01-29T07:52:56;102400.64;;;7.89;50.29
47706;BME280;33471;52.104;1.318;2023-01-29T07:55:23;102401.79;;;7.46;51.74
47706;BME280;33471;52.104;1.318;2023-01-29T07:57:55;102402.15;;;7.24;51.85
47706;BME280;33471;52.104;1.318;2023-01-29T08:00:22;102401.50;;;7.47;51.55
47706;BME280;33471;52.104;1.318;2023-01-29T08:02:51;102401.28;;;7.48;51.41
47706;BME280;33471;52.104;1.318;2023-01-29T08:05:19;102401.47;;;8.04;50.80
47706;BME280;33471;52.104;1.318;2023-01-29T08:07:53;102402.53;;;7.16;51.13
47706;BME280;33471;52.104;1.318;2023-01-29T08:10:20;102396.75;;;7.63;51.49
47706;BME280;33471;52.104;1.318;2023-01-29T08:12:53;102390.13;;;7.04;52.58
47706;BME280;33471;52.104;1.318;2023-01-29T08:15:21;102392.29;;;5.82;55.96
47706;BME280;33471;52.104;1.318;2023-01-29T08:17:48;102385.36;;;7.49;52.60
47706;BME280;33471;52.104;1.318;2023-01-29T08:20:17;102381.32;;;6.32;54.84
47706;BME280;33471;52.104;1.318;2023-01-29T08:22:44;102379.80;;;6.99;54.24
47706;BME280;33471;52.104;1.318;2023-01-29T08:25:13;102374.12;;;7.08;52.93
47706;BME280;33471;52.104;1.318;2023-01-29T08:27:41;102374.49;;;8.26;52.14
47706;BME280;33471;52.104;1.318;2023-01-29T08:30:10;102374.52;;;7.77;51.96
47706;BME280;33471;52.104;1.318;2023-01-29T08:32:38;102375.72;;;8.21;51.49
47706;BME280;33471;52.104;1.318;2023-01-29T08:35:06;102374.43;;;7.47;51.10
47706;BME280;33471;52.104;1.318;2023-01-29T08:37:33;102372.87;;;7.82;51.60
47706;BME280;33471;52.104;1.318;2023-01-29T08:40:00;102375.63;;;7.91;51.49
47706;BME280;33471;52.104;1.318;2023-01-29T08:42:27;102373.18;;;7.09;53.16
47706;BME280;33471;52.104;1.318;2023-01-29T08:44:55;102370.65;;;8.05;51.41
47706;BME280;33471;52.104;1.318;2023-01-29T08:47:22;102372.63;;;7.19;52.71
47706;BME280;33471;52.104;1.318;2023-01-29T08:49:50;102369.08;;;7.16;53.52
47706;BME280;33471;52.104;1.318;2023-01-29T08:52:17;102370.68;;;6.49;55.57
47706;BME280;33471;52.104;1.318;2023-01-29T08:54:45;102365.57;;;6.95;53.64
47706;BME280;33471;52.104;1.318;2023-01-29T08:57:12;102365.80;;;6.99;53.53
47706;BME280;33471;52.104;1.318;2023-01-29T08:59:39;102367.10;;;7.60;52.34
47706;BME280;33471;52.104;1.318;2023-01-29T09:02:06;102369.07;;;8.15;51.33
47706;BME280;33471;52.104;1.318;2023-01-29T09:04:33;102366.54;;;7.50;52.42
47706;BME280;33471;52.104;1.318;2023-01-29T09:07:00;102365.72;;;7.42;51.61
47706;BME280;33471;52.104;1.318;2023-01-29T09:09:27;102357.95;;;6.96;53.67
47706;BME280;33471;52.104;1.318;2023-01-29T09:11:55;102364.94;;;6.65;54.22
47706;BME280;33471;52.104;1.318;2023-01-29T09:14:22;102354.54;;;7.11;53.99
47706;BME280;33471;52.104;1.318;2023-01-29T09:16:49;102352.86;;;7.08;53.49
47706;BME280;33471;52.104;1.318;2023-01-29T09:19:16;102352.31;;;7.55;52.65
47706;BME280;33471;52.104;1.318;2023-01-29T09:21:44;102347.90;;;8.34;51.27
47706;BME280;33471;52.104;1.318;2023-01-29T09:24:11;102355.60;;;7.89;51.28
47706;BME280;33471;52.104;1.318;2023-01-29T09:26:39;102353.19;;;8.19;51.22
47706;BME280;33471;52.104;1.318;2023-01-29T09:29:09;102350.89;;;8.50;50.55
47706;BME280;33471;52.104;1.318;2023-01-29T09:31:36;102349.13;;;7.68;51.27
47706;BME280;33471;52.104;1.318;2023-01-29T09:34:04;102354.70;;;7.35;51.81
47706;BME280;33471;52.104;1.318;2023-01-29T09:36:31;102347.36;;;8.29;51.73
47706;BME280;33471;52.104;1.318;2023-01-29T09:38:58;102349.26;;;7.36;51.59
47706;BME280;33471;52.104;1.318;2023-01-29T09:41:42;102354.83;;;7.69;51.17
47706;BME280;33471;52.104;1.318;2023-01-29T09:44:16;102350.50;;;6.89;53.14
47706;BME280;33471;52.104;1.318;2023-01-29T09:46:47;102342.29;;;6.72;54.65
47706;BME280;33471;52.104;1.318;2023-01-29T09:49:23;102337.98;;;6.78;54.63
47706;BME280;33471;52.104;1.318;2023-01-29T09:51:52;102335.51;;;6.79;54.36
47706;BME280;33471;52.104;1.318;2023-01-29T09:54:24;102334.16;;;7.14;53.45
47706;BME280;33471;52.104;1.318;2023-01-29T09:56:59;102332.60;;;7.53;52.35
47706;BME280;33471;52.104;1.318;2023-01-29T09:59:30;102323.98;;;7.23;52.89
47706;BME280;33471;52.104;1.318;2023-01-29T10:02:05;102327.12;;;7.38;53.09
47706;BME280;33471;52.104;1.318;2023-01-29T10:05:05;102324.94;;;7.86;51.50
47706;BME280;33471;52.104;1.318;2023-01-29T10:07:49;102320.07;;;7.58;52.10
47706;BME280;33471;52.104;1.318;2023-01-29T10:10:29;102315.48;;;7.61;51.07
47706;BME280;33471;52.104;1.318;2023-01-29T10:13:14;102314.12;;;7.60;50.95
47706;BME280;33471;52.104;1.318;2023-01-29T10:15:54;102316.30;;;8.02;50.21
47706;BME280;33471;52.104;1.318;2023-01-29T10:18:42;102315.11;;;7.40;51.33
47706;BME280;33471;52.104;1.318;2023-01-29T10:21:25;102309.57;;;7.67;51.79
47706;BME280;33471;52.104;1.318;2023-01-29T10:24:01;102307.63;;;7.57;52.36
47706;BME280;33471;52.104;1.318;2023-01-29T10:26:33;102308.62;;;7.79;52.11
47706;BME280;33471;52.104;1.318;2023-01-29T10:29:05;102302.90;;;8.17;51.10
47706;BME280;33471;52.104;1.318;2023-01-29T10:31:37;102293.03;;;7.96;51.00
47706;BME280;33471;52.104;1.318;2023-01-29T10:34:11;102293.42;;;7.84;50.99
47706;BME280;33471;52.104;1.318;2023-01-29T10:36:42;102283.02;;;8.72;49.68
47706;BME280;33471;52.104;1.318;2023-01-29T10:39:15;102285.96;;;8.80;49.73
47706;BME280;33471;52.104;1.318;2023-01-29T10:41:53;102289.28;;;7.78;50.92
47706;BME280;33471;52.104;1.318;2023-01-29T10:44:34;102280.52;;;8.06;50.34
47706;BME280;33471;52.104;1.318;2023-01-29T10:47:14;102279.80;;;8.61;50.23
47706;BME280;33471;52.104;1.318;2023-01-29T10:49:59;102280.76;;;7.41;52.86
47706;BME280;33471;52.104;1.318;2023-01-29T10:52:42;102268.95;;;6.76;53.72
47706;BME280;33471;52.104;1.318;2023-01-29T10:55:21;102256.69;;;7.82;51.95
47706;BME280;33471;52.104;1.318;2023-01-29T10:57:57;102249.85;;;8.83;49.99
47706;BME280;33471;52.104;1.318;2023-01-29T11:00:33;102249.00;;;8.18;50.46
47706;BME280;33471;52.104;1.318;2023-01-29T11:03:13;102246.58;;;8.33;50.81
47706;BME280;33471;52.104;1.318;2023-01-29T11:05:48;102239.69;;;8.19;51.95
47706;BME280;33471;52.104;1.318;2023-01-29T11:08:21;102235.28;;;8.02;51.08
47706;BME280;33471;52.104;1.318;2023-01-29T11:10:57;102233.79;;;7.54;52.43
47706;BME280;33471;52.104;1.318;2023-01-29T11:13:31;102225.11;;;8.55;50.45
47706;BME280;33471;52.104;1.318;2023-01-29T11:16:03;102219.47;;;7.51;52.26
47706;BME280;33471;52.104;1.318;2023-01-29T11:18:51;102217.73;;;7.76;52.76
47706;BME280;33471;52.104;1.318;2023-01-29T11:21:19;102202.34;;;7.91;52.00
47706;BME280;33471;52.104;1.318;2023-01-29T11:23:46;102196.75;;;8.60;50.53
47706;BME280;33471;52.104;1.318;2023-01-29T11:26:17;102194.79;;;8.85;50.08
47706;BME280;33471;52.104;1.318;2023-01-29T11:28:48;102190.00;;;8.23;51.67
47706;BME280;33471;52.104;1.318;2023-01-29T11:31:21;102184.02;;;7.83;52.26
47706;BME280;33471;52.104;1.318;2023-01-29T11:33:52;102190.70;;;7.31;53.93
47706;BME280;33471;52.104;1.318;2023-01-29T11:36:30;102176.61;;;7.62;53.58
47706;BME280;33471;52.104;1.318;2023-01-29T11:39:33;102182.89;;;6.21;57.00
47706;BME280;33471;52.104;1.318;2023-01-29T11:42:01;102178.99;;;6.75;56.48
47706;BME280;33471;52.104;1.318;2023-01-29T11:44:31;102168.06;;;8.24;52.71
47706;BME280;33471;52.104;1.318;2023-01-29T11:47:11;102162.90;;;7.63;53.05
47706;BME280;33471;52.104;1.318;2023-01-29T11:49:39;102161.01;;;7.86;53.74
47706;BME280;33471;52.104;1.318;2023-01-29T11:52:14;102148.95;;;8.37;52.25
47706;BME280;33471;52.104;1.318;2023-01-29T11:54:46;102148.83;;;8.29;52.23
47706;BME280;33471;52.104;1.318;2023-01-29T11:57:25;102149.07;;;7.45;54.98
47706;BME280;33471;52.104;1.318;2023-01-29T11:59:56;102151.68;;;6.62;57.06
47706;BME280;33471;52.104;1.318;2023-01-29T12:02:28;102146.49;;;7.43;55.71
47706;BME280;33471;52.104;1.318;2023-01-29T12:04:59;102136.34;;;7.45;55.22
47706;BME280;33471;52.104;1.318;2023-01-29T12:07:28;102133.22;;;7.55;54.50
47706;BME280;33471;52.104;1.318;2023-01-29T12:09:57;102125.59;;;7.71;54.59
47706;BME280;33471;52.104;1.318;2023-01-29T12:12:31;102118.56;;;8.29;53.74
47706;BME280;33471;52.104;1.318;2023-01-29T12:15:04;102119.41;;;7.33;55.39
47706;BME280;33471;52.104;1.318;2023-01-29T12:17:35;102102.52;;;7.43;55.55
47706;BME280;33471;52.104;1.318;2023-01-29T12:20:09;102104.57;;;7.73;54.68
47706;BME280;33471;52.104;1.318;2023-01-29T12:22:44;102097.19;;;8.01;53.59
47706;BME280;33471;52.104;1.318;2023-01-29T12:25:21;102094.07;;;6.76;56.69
47706;BME280;33471;52.104;1.318;2023-01-29T12:27:56;102087.71;;;7.72;54.38
47706;BME280;33471;52.104;1.318;2023-01-29T12:30:29;102086.11;;;7.42;54.40
47706;BME280;33471;52.104;1.318;2023-01-29T12:33:02;102079.11;;;7.72;54.10
47706;BME280;33471;52.104;1.318;2023-01-29T12:35:35;102077.40;;;8.01;53.33
47706;BME280;33471;52.104;1.318;2023-01-29T12:38:07;102071.86;;;8.70;52.50
47706;BME280;33471;52.104;1.318;2023-01-29T12:40:41;102062.76;;;8.65;52.52
47706;BME280;33471;52.104;1.318;2023-01-29T12:43:15;102057.88;;;7.59;54.46
47706;BME280;33471;52.104;1.318;2023-01-29T12:45:46;102049.07;;;7.39;55.04
47706;BME280;33471;52.104;1.318;2023-01-29T12:48:22;102040.97;;;8.07;53.42
47706;BME280;33471;52.104;1.318;2023-01-29T12:50:52;102036.98;;;7.96;53.97
47706;BME280;33471;52.104;1.318;2023-01-29T12:53:25;102026.39;;;8.08;53.53
47706;BME280;33471;52.104;1.318;2023-01-29T12:55:57;102023.01;;;8.70;53.29
47706;BME280;33471;52.104;1.318;2023-01-29T12:58:31;102022.37;;;7.83;54.66
47706;BME280;33471;52.104;1.318;2023-01-29T13:01:05;102015.74;;;8.20;54.34
47706;BME280;33471;52.104;1.318;2023-01-29T13:03:49;102014.82;;;7.40;55.70
47706;BME280;33471;52.104;1.318;2023-01-29T13:06:24;102007.18;;;8.26;54.71
47706;BME280;33471;52.104;1.318;2023-01-29T13:08:57;102004.31;;;7.49;55.70
47706;BME280;33471;52.104;1.318;2023-01-29T13:11:34;101996.24;;;8.84;52.35
47706;BME280;33471;52.104;1.318;2023-01-29T13:14:11;101994.90;;;7.99;55.70
47706;BME280;33471;52.104;1.318;2023-01-29T13:16:43;101987.14;;;7.25;57.32
47706;BME280;33471;52.104;1.318;2023-01-29T13:19:23;101988.42;;;7.70;56.41
47706;BME280;33471;52.104;1.318;2023-01-29T13:21:53;101982.86;;;7.40;57.19